Time;durP1;ratioP1;P1;durP2;ratioP2;P2;SDS_P1;SDS_P2;PMS_P1;PMS_P2;Temp;Humidity;BMP_temperature;BMP_pressure;BME280_temperature;BME280_humidity;BME280_pressure;Samples;Min_cycle;Max_cycle;Signal;HPM_P1;HPM_P2
2022/07/31 00:00:47;;;;;;;0.40;0.40;;;;;;;23.91;43.95;101196.97;5158933;28;20037;-81
2022/07/31 00:03:18;;;;;;;0.77;0.65;;;;;;;23.87;43.94;101198.19;5169962;28;20048;-80
2022/07/31 00:05:49;;;;;;;2.13;1.15;;;;;;;23.86;43.95;101197.31;5178518;28;20068;-80
2022/07/31 00:08:19;;;;;;;0.50;0.50;;;;;;;23.84;44.00;101199.25;5196757;28;20018;-81
2022/07/31 00:10:50;;;;;;;0.32;0.32;;;;;;;23.82;44.15;101194.97;5191978;28;20136;-80
2022/07/31 00:13:23;;;;;;;5.07;0.60;;;;;;;23.82;44.15;101189.63;5195878;28;20028;-80
2022/07/31 00:15:54;;;;;;;1.08;0.88;;;;;;;23.81;44.21;101193.25;5213693;28;20068;-81
2022/07/31 00:18:24;;;;;;;4.95;1.45;;;;;;;23.77;44.30;101189.13;5188245;28;20036;-80
2022/07/31 00:20:55;;;;;;;3.50;2.70;;;;;;;23.76;44.04;101193.59;5166759;28;20060;-81
2022/07/31 00:23:25;;;;;;;0.63;0.63;;;;;;;23.75;44.24;101183.88;5187799;28;20560;-81
2022/07/31 00:25:56;;;;;;;1.05;0.95;;;;;;;23.74;44.17;101182.19;5215065;28;20052;-80
2022/07/31 00:28:27;;;;;;;0.80;0.80;;;;;;;23.71;44.26;101171.69;5186202;28;20040;-80
2022/07/31 00:30:58;;;;;;;0.60;0.60;;;;;;;23.70;44.19;101170.84;5173174;28;20033;-80
2022/07/31 00:33:28;;;;;;;0.63;0.63;;;;;;;23.67;44.64;101167.53;5218368;28;20093;-80
2022/07/31 00:35:59;;;;;;;0.75;0.75;;;;;;;23.64;44.41;101165.94;5166887;28;20049;-81
2022/07/31 00:38:29;;;;;;;1.40;0.38;;;;;;;23.64;44.60;101162.41;5177297;28;20033;-81
2022/07/31 00:41:01;;;;;;;2.65;0.52;;;;;;;23.61;44.78;101159.94;5223531;28;20120;-81
2022/07/31 00:43:32;;;;;;;0.20;0.20;;;;;;;23.59;44.61;101160.06;5206445;28;20064;-80
2022/07/31 00:46:03;;;;;;;0.30;0.30;;;;;;;23.55;44.32;101154.09;5198395;28;20722;-80
2022/07/31 00:48:39;;;;;;;0.93;0.88;;;;;;;23.54;44.27;101155.06;5207449;28;20040;-81
2022/07/31 00:51:09;;;;;;;0.30;0.30;;;;;;;23.51;44.49;101151.75;5172979;28;20033;-81
2022/07/31 00:53:40;;;;;;;0.40;0.40;;;;;;;23.49;44.60;101157.25;5170542;28;20060;-81
2022/07/31 00:56:11;;;;;;;0.63;0.63;;;;;;;23.48;44.42;101160.88;5189011;28;20076;-80
2022/07/31 00:58:42;;;;;;;0.60;0.60;;;;;;;23.44;44.84;101156.72;5190076;28;20052;-81
2022/07/31 01:01:13;;;;;;;0.40;0.40;;;;;;;23.41;44.66;101155.13;5190085;28;20048;-80
2022/07/31 01:03:44;;;;;;;0.82;0.50;;;;;;;23.40;44.64;101149.91;5177419;28;20501;-82
2022/07/31 01:06:14;;;;;;;0.35;0.35;;;;;;;23.37;44.69;101153.66;5163376;28;20598;-82
2022/07/31 01:08:48;;;;;;;1.17;0.77;;;;;;;23.35;44.69;101150.25;5206321;28;20037;-82
2022/07/31 01:12:19;;;;;;;0.20;0.20;;;;;;;23.30;44.87;101147.06;5207398;28;20079;-81
2022/07/31 01:14:53;;;;;;;0.57;0.57;;;;;;;23.30;44.76;101143.50;5090133;28;20039;-81
2022/07/31 01:17:29;;;;;;;0.20;0.20;;;;;;;23.22;44.82;101142.25;5158105;28;20025;-82
2022/07/31 01:20:03;;;;;;;0.55;0.55;;;;;;;23.19;44.70;101137.13;5175035;28;20084;-82
2022/07/31 01:23:08;;;;;;;0.40;0.40;;;;;;;23.19;44.81;101134.44;5160717;28;20132;-82
2022/07/31 01:25:57;;;;;;;0.40;0.40;;;;;;;23.16;45.02;101129.31;5167756;28;20037;-82
2022/07/31 01:28:58;;;;;;;0.30;0.30;;;;;;;23.15;44.47;101130.28;5187696;28;20148;-82
2022/07/31 01:31:40;;;;;;;0.30;0.30;;;;;;;23.10;45.11;101135.97;5159022;28;20045;-81
2022/07/31 01:34:30;;;;;;;0.47;0.47;;;;;;;23.10;44.73;101135.09;5186646;28;20029;-82
2022/07/31 01:37:29;;;;;;;0.40;0.40;;;;;;;23.04;45.30;101135.56;5165151;28;20713;-82
2022/07/31 01:40:20;;;;;;;1.83;1.33;;;;;;;23.05;44.99;101131.91;5164860;28;20038;-82
2022/07/31 01:42:59;;;;;;;0.82;0.82;;;;;;;23.02;44.89;101137.47;5165621;28;20033;-81
2022/07/31 01:45:41;;;;;;;0.35;0.35;;;;;;;22.99;45.13;101135.06;5178923;28;20080;-82
2022/07/31 01:48:14;;;;;;;0.40;0.40;;;;;;;22.97;45.17;101139.66;5161049;28;20250;-81
2022/07/31 01:50:47;;;;;;;0.35;0.35;;;;;;;22.93;45.20;101134.50;5181601;28;20060;-81
2022/07/31 01:53:25;;;;;;;1.15;0.80;;;;;;;22.90;45.75;101129.41;5161057;28;20063;-81
2022/07/31 01:55:57;;;;;;;0.52;0.52;;;;;;;22.91;45.12;101131.13;5175175;28;20041;-82
2022/07/31 01:58:31;;;;;;;0.43;0.43;;;;;;;;;;5187551;28;20397;-81
2022/07/31 02:01:08;;;;;;;0.70;0.70;;;;;;;22.87;45.47;101123.41;5193278;28;20077;-82
2022/07/31 02:03:43;;;;;;;0.88;0.80;;;;;;;22.83;45.95;101129.94;5202175;28;20032;-81
2022/07/31 02:06:17;;;;;;;0.35;0.35;;;;;;;22.84;45.85;101124.50;5181865;28;20128;-82
2022/07/31 02:08:51;;;;;;;0.20;0.20;;;;;;;22.82;46.23;101137.13;5145559;28;20037;-82
2022/07/31 02:11:22;;;;;;;0.50;0.50;;;;;;;22.81;45.69;101132.75;5191879;28;20030;-81
2022/07/31 02:13:54;;;;;;;0.47;0.47;;;;;;;22.86;46.52;101138.59;5171357;28;20040;-82
2022/07/31 02:16:26;;;;;;;15.07;1.08;;;;;;;22.80;46.01;101136.38;5198427;28;20525;-82
2022/07/31 02:18:58;;;;;;;0.40;0.40;;;;;;;22.77;46.42;101139.25;5188174;28;20021;-81
2022/07/31 02:21:28;;;;;;;0.20;0.20;;;;;;;22.77;46.24;101137.47;5171387;28;20029;-82
2022/07/31 02:23:59;;;;;;;0.45;0.45;;;;;;;22.77;47.61;101144.63;5149067;28;20034;-82
2022/07/31 02:26:35;;;;;;;0.40;0.40;;;;;;;22.75;46.34;101133.19;5164761;28;20119;-82
2022/07/31 02:29:08;;;;;;;;;;;;;;;22.72;47.08;101136.94;5153731;28;20679;-81
2022/07/31 02:31:43;;;;;;;0.30;0.30;;;;;;;22.68;47.03;101134.59;5182123;28;19921;-82
2022/07/31 02:34:14;;;;;;;0.90;0.90;;;;;;;22.70;46.60;101133.53;5185208;28;20118;-82
2022/07/31 02:36:46;;;;;;;0.70;0.70;;;;;;;22.67;46.10;101135.56;5157600;28;20040;-81
2022/07/31 02:39:21;;;;;;;0.45;0.45;;;;;;;22.61;46.69;101140.38;5165343;28;20199;-81
2022/07/31 02:41:53;;;;;;;2.08;0.63;;;;;;;22.62;46.64;101131.38;5151850;28;20183;-82
2022/07/31 02:44:24;;;;;;;0.45;0.45;;;;;;;22.63;46.87;101135.78;5162129;28;20725;-82
2022/07/31 02:46:55;;;;;;;0.50;0.50;;;;;;;22.63;46.79;101133.09;5147263;28;20030;-82
2022/07/31 02:49:28;;;;;;;1.27;1.17;;;;;;;22.63;46.31;101132.25;5160800;28;20034;-82
2022/07/31 02:51:59;;;;;;;0.65;0.40;;;;;;;22.62;46.42;101130.53;5172876;28;20070;-82
2022/07/31 02:54:30;;;;;;;0.35;0.35;;;;;;;22.58;46.46;101129.91;5211004;28;20022;-82
2022/07/31 02:57:02;;;;;;;0.63;0.63;;;;;;;22.48;47.00;101128.84;5223930;28;20053;-82
2022/07/31 02:59:36;;;;;;;0.30;0.30;;;;;;;22.48;46.76;101126.19;5193033;28;20084;-82
2022/07/31 03:02:07;;;;;;;0.93;0.88;;;;;;;22.47;46.65;101133.34;5172719;28;20044;-81
2022/07/31 03:04:38;;;;;;;0.40;0.40;;;;;;;22.34;46.82;101132.47;5146765;28;20240;-82
2022/07/31 03:07:09;;;;;;;0.25;0.25;;;;;;;22.24;47.43;101132.28;5170756;28;20320;-81
2022/07/31 03:09:46;;;;;;;0.20;0.20;;;;;;;22.22;47.20;101133.34;5184370;28;20064;-81
2022/07/31 03:12:20;;;;;;;0.22;0.22;;;;;;;22.22;47.13;101134.19;5187485;28;20056;-82
2022/07/31 03:14:53;;;;;;;0.30;0.30;;;;;;;22.08;47.72;101132.47;5169165;28;20139;-82
2022/07/31 03:17:23;;;;;;;;;;;;;;;22.17;47.77;101137.19;5189206;28;20500;-82
2022/07/31 03:19:55;;;;;;;0.40;0.40;;;;;;;22.20;47.51;101125.41;5197112;28;20016;-82
2022/07/31 03:22:25;;;;;;;0.43;0.43;;;;;;;22.29;47.04;101118.59;5194080;28;20131;-81
2022/07/31 03:24:56;;;;;;;0.50;0.50;;;;;;;22.28;46.94;101119.53;5189219;28;20132;-82
2022/07/31 03:27:27;;;;;;;0.50;0.50;;;;;;;22.23;47.17;101117.19;5198327;28;20476;-82
2022/07/31 03:29:57;;;;;;;0.63;0.63;;;;;;;22.28;47.54;101116.88;5202221;28;20067;-82
2022/07/31 03:32:29;;;;;;;0.40;0.40;;;;;;;22.28;47.70;101122.22;5183772;28;20036;-81
2022/07/31 03:34:59;;;;;;;0.52;0.52;;;;;;;22.11;48.43;101126.06;5170418;28;20071;-82
2022/07/31 03:37:30;;;;;;;0.65;0.65;;;;;;;22.09;48.91;101128.00;5183560;28;20029;-82
2022/07/31 03:40:01;;;;;;;0.20;0.20;;;;;;;22.11;47.77;101134.94;5183325;28;20041;-81
2022/07/31 03:42:32;;;;;;;0.32;0.32;;;;;;;22.18;47.55;101140.72;5191845;28;20097;-82
2022/07/31 03:45:05;;;;;;;0.25;0.25;;;;;;;22.08;48.30;101142.31;5194081;28;20179;-82
2022/07/31 03:47:36;;;;;;;;;;;;;;;22.12;47.78;101143.78;5199136;28;20041;-82
2022/07/31 03:50:08;;;;;;;0.20;0.20;;;;;;;22.11;47.89;101134.94;5198523;28;19932;-82
2022/07/31 03:52:39;;;;;;;1.05;0.95;;;;;;;22.06;49.25;101136.22;5157408;28;20052;-82
2022/07/31 03:55:13;;;;;;;0.30;0.30;;;;;;;22.08;48.82;101132.47;5170213;28;20033;-82
2022/07/31 03:57:44;;;;;;;0.50;0.50;;;;;;;22.06;48.83;101130.88;5186429;28;20044;-81
2022/07/31 04:00:15;;;;;;;0.20;0.20;;;;;;;21.99;49.35;101125.97;5177671;28;20040;-82
2022/07/31 04:02:46;;;;;;;0.20;0.20;;;;;;;21.99;48.77;101127.75;5184905;28;20036;-82
2022/07/31 04:05:17;;;;;;;0.32;0.32;;;;;;;21.93;49.95;101133.53;5185583;28;20520;-81
2022/07/31 04:07:48;;;;;;;0.30;0.30;;;;;;;21.84;50.15;101129.69;5194535;28;20009;-82
2022/07/31 04:10:19;;;;;;;0.30;0.30;;;;;;;21.85;50.28;101131.41;5179803;28;20037;-83
2022/07/31 04:12:49;;;;;;;2.28;0.50;;;;;;;21.77;51.02;101131.91;5197570;28;20087;-82
2022/07/31 04:15:20;;;;;;;0.40;0.40;;;;;;;21.67;51.32;101131.69;5201754;28;20033;-82
2022/07/31 04:17:50;;;;;;;0.30;0.30;;;;;;;21.69;51.23;101131.56;5199592;28;20040;-82
2022/07/31 04:20:21;;;;;;;0.28;0.28;;;;;;;21.63;51.26;101127.50;5198912;28;20036;-82
2022/07/31 04:22:52;;;;;;;0.20;0.20;;;;;;;21.65;51.52;101130.94;5185916;28;20080;-82
2022/07/31 04:25:22;;;;;;;0.30;0.30;;;;;;;21.65;50.85;101130.94;5186530;28;20045;-82
2022/07/31 04:27:53;;;;;;;0.30;0.30;;;;;;;21.67;50.86;101129.03;5180111;28;20037;-82
2022/07/31 04:30:24;;;;;;;1.45;0.47;;;;;;;21.72;50.26;101135.84;5200108;28;20044;-82
2022/07/31 04:32:54;;;;;;;0.52;0.52;;;;;;;21.79;50.50;101138.00;5184223;28;20132;-82
2022/07/31 04:35:27;;;;;;;1.40;0.43;;;;;;;21.72;50.23;101130.50;5170353;28;20036;-82
2022/07/31 04:37:58;;;;;;;0.20;0.20;;;;;;;21.72;50.38;101134.06;5172355;28;20028;-82
2022/07/31 04:40:28;;;;;;;0.60;0.60;;;;;;;21.74;50.52;101134.78;5186949;28;20033;-82
2022/07/31 04:42:59;;;;;;;0.40;0.40;;;;;;;21.73;50.12;101132.22;5187605;28;20032;-82
2022/07/31 04:45:29;;;;;;;0.30;0.30;;;;;;;21.76;50.26;101132.03;5181389;28;20037;-82
2022/07/31 04:48:03;;;;;;;0.20;0.20;;;;;;;21.65;51.63;101124.75;5193359;28;20387;-82
2022/07/31 04:50:35;;;;;;;0.55;0.55;;;;;;;21.74;51.14;101133.94;5201993;28;20047;-82
2022/07/31 04:53:06;;;;;;;0.52;0.40;;;;;;;21.60;52.21;101141.06;5209013;28;20071;-82
2022/07/31 04:55:36;;;;;;;0.30;0.30;;;;;;;21.63;52.40;101142.69;5178598;28;20057;-82
2022/07/31 04:58:07;;;;;;;0.55;0.55;;;;;;;21.68;51.25;101151.22;5190276;28;20075;-82
2022/07/31 05:00:39;;;;;;;1.20;1.05;;;;;;;21.60;52.41;101154.44;5200609;28;20123;-82
2022/07/31 05:03:10;;;;;;;0.30;0.30;;;;;;;21.59;52.34;101147.38;5207094;28;20124;-82
2022/07/31 05:05:44;;;;;;;0.30;0.30;;;;;;;21.62;51.57;101147.16;5168802;28;20128;-81
2022/07/31 05:08:14;;;;;;;0.32;0.32;;;;;;;21.65;52.11;101144.28;5179541;28;20032;-82
2022/07/31 05:13:40;;;;;;;0.20;0.20;;;;;;;21.69;51.40;101143.09;5191687;28;20094;-82
2022/07/31 05:16:11;;;;;;;0.45;0.45;;;;;;;21.65;52.12;101144.28;5199424;28;20138;-81
2022/07/31 05:18:41;;;;;;;0.30;0.30;;;;;;;21.62;52.16;101141.81;5187553;28;20417;-81
2022/07/31 05:21:13;;;;;;;0.32;0.32;;;;;;;21.64;52.11;101139.91;5164550;28;20046;-82
2022/07/31 05:23:46;;;;;;;0.47;0.47;;;;;;;21.67;52.58;101149.50;5196948;28;20063;-82
2022/07/31 05:26:17;;;;;;;0.20;0.20;;;;;;;21.64;52.43;101150.56;5200876;28;20037;-82
2022/07/31 05:28:52;;;;;;;0.40;0.40;;;;;;;21.64;52.79;101149.75;5185160;28;20113;-81
2022/07/31 05:31:23;;;;;;;0.20;0.20;;;;;;;21.52;53.20;101146.03;5167261;28;20117;-81
2022/07/31 05:33:54;;;;;;;0.40;0.40;;;;;;;21.55;53.26;101145.81;5194131;28;20049;-81
2022/07/31 05:36:25;;;;;;;0.20;0.20;;;;;;;21.65;52.63;101141.63;5189687;28;20051;-81
2022/07/31 05:38:56;;;;;;;0.20;0.20;;;;;;;21.60;53.01;101143.75;5215528;28;20085;-81
2022/07/31 05:41:28;;;;;;;0.20;0.20;;;;;;;21.56;53.24;101139.53;5173305;28;20240;-82
2022/07/31 05:43:59;;;;;;;0.20;0.20;;;;;;;21.59;54.28;101142.03;5175053;28;20063;-81
2022/07/31 05:46:30;;;;;;;0.35;0.35;;;;;;;21.43;55.20;101143.97;5199291;28;20497;-81
2022/07/31 05:49:13;;;;;;;0.30;0.30;;;;;;;21.48;54.62;101136.50;5183437;28;20052;-82
2022/07/31 05:51:44;;;;;;;7.80;2.03;;;;;;;21.45;55.46;101144.72;5200808;28;20207;-81
2022/07/31 05:54:14;;;;;;;0.20;0.20;;;;;;;21.39;55.80;101151.34;5172653;28;20028;-81
2022/07/31 05:56:48;;;;;;;0.65;0.65;;;;;;;21.38;55.52;101145.13;5185289;28;20048;-82
2022/07/31 05:59:19;;;;;;;0.55;0.55;;;;;;;21.34;56.69;101148.09;5187876;28;20033;-83
2022/07/31 06:01:50;;;;;;;0.20;0.20;;;;;;;21.46;55.08;101141.09;5189547;28;20033;-82
2022/07/31 06:04:20;;;;;;;2.05;1.10;;;;;;;21.38;56.04;101141.63;5200329;28;20040;-80
2022/07/31 06:06:54;;;;;;;0.40;0.40;;;;;;;21.43;56.00;101139.47;5165542;28;20048;-82
2022/07/31 06:09:25;;;;;;;0.30;0.30;;;;;;;21.41;56.43;101140.56;5209972;28;20029;-83
2022/07/31 06:11:55;;;;;;;0.40;0.40;;;;;;;21.29;57.34;101140.38;5203537;28;20036;-81
2022/07/31 06:14:27;;;;;;;0.38;0.30;;;;;;;21.41;56.65;101148.56;5225279;28;20036;-81
2022/07/31 06:16:57;;;;;;;0.32;0.32;;;;;;;21.38;57.09;101149.63;5180008;28;20058;-81
2022/07/31 06:19:28;;;;;;;0.40;0.40;;;;;;;21.39;57.68;101146.00;5205199;28;20052;-81
2022/07/31 06:21:59;;;;;;;0.30;0.30;;;;;;;21.49;56.61;101144.41;5213707;28;20568;-81
2022/07/31 06:24:30;;;;;;;0.20;0.20;;;;;;;21.42;57.56;101142.25;5199008;28;20064;-80
2022/07/31 06:27:02;;;;;;;0.20;0.20;;;;;;;21.35;58.54;101134.69;5190331;28;20053;-80
2022/07/31 06:29:36;;;;;;;0.10;0.10;;;;;;;21.36;58.10;101136.34;5197734;28;20537;-80
2022/07/31 06:32:08;;;;;;;5.18;1.45;;;;;;;21.37;58.31;101135.41;5168397;28;20037;-81
2022/07/31 06:34:39;;;;;;;0.40;0.40;;;;;;;21.27;58.68;101130.78;5185612;28;20087;-82
2022/07/31 06:37:10;;;;;;;0.20;0.20;;;;;;;21.35;58.15;101129.34;5186454;28;20075;-81
2022/07/31 06:39:41;;;;;;;0.20;0.20;;;;;;;21.25;59.23;101128.22;5198285;28;20033;-82
2022/07/31 06:42:17;;;;;;;0.40;0.40;;;;;;;21.24;58.91;101131.84;5204766;28;20097;-83
2022/07/31 06:44:48;;;;;;;2.08;0.98;;;;;;;21.20;59.46;101136.53;5201398;28;20025;-81
2022/07/31 06:47:24;;;;;;;0.20;0.20;;;;;;;21.30;59.20;101146.59;5212344;28;20099;-84
2022/07/31 06:49:55;;;;;;;4.47;0.93;;;;;;;21.31;58.81;101148.31;5193802;28;20544;-82
2022/07/31 06:52:25;;;;;;;0.40;0.40;;;;;;;21.26;59.04;101155.75;5173869;28;20110;-81
2022/07/31 06:54:56;;;;;;;0.20;0.20;;;;;;;21.30;58.40;101152.78;5166478;28;20178;-81
2022/07/31 06:57:27;;;;;;;0.20;0.20;;;;;;;21.26;59.97;101156.63;5183833;28;20033;-81
2022/07/31 06:59:58;;;;;;;1.35;1.25;;;;;;;21.18;60.02;101158.94;5179197;28;20128;-81
2022/07/31 07:02:28;;;;;;;0.95;0.85;;;;;;;21.20;60.39;101151.66;5180241;28;20171;-81
2022/07/31 07:04:59;;;;;;;0.47;0.47;;;;;;;21.15;60.43;101153.78;5160042;28;20179;-81
2022/07/31 07:07:29;;;;;;;0.32;0.30;;;;;;;21.27;58.04;101157.47;5181670;28;20025;-81
2022/07/31 07:10:02;;;;;;;0.30;0.30;;;;;;;21.26;59.09;101150.41;5169386;28;20049;-82
2022/07/31 07:12:33;;;;;;;0.20;0.20;;;;;;;21.14;60.76;101154.75;5167737;28;20029;-81
2022/07/31 07:15:05;;;;;;;0.20;0.20;;;;;;;21.13;60.36;101151.22;5167765;28;20060;-82
2022/07/31 07:17:36;;;;;;;0.35;0.35;;;;;;;21.16;60.37;101144.84;5194538;28;20060;-82
2022/07/31 07:20:12;;;;;;;0.20;0.20;;;;;;;21.22;59.98;101153.31;5191773;28;20110;-81
2022/07/31 07:22:43;;;;;;;0.28;0.28;;;;;;;21.13;61.36;101155.69;5169627;28;20106;-82
2022/07/31 07:25:19;;;;;;;0.20;0.20;;;;;;;21.18;60.34;101138.44;5168046;28;20096;-83
2022/07/31 07:27:50;;;;;;;0.47;0.47;;;;;;;21.17;61.14;101141.22;5163314;28;20039;-84
2022/07/31 07:30:20;;;;;;;0.40;0.40;;;;;;;21.15;61.06;101132.44;5177942;28;20505;-82
2022/07/31 07:32:51;;;;;;;0.57;0.52;;;;;;;21.20;60.75;101136.53;5176934;28;20559;-81
2022/07/31 07:35:25;;;;;;;0.20;0.20;;;;;;;21.24;60.82;101137.19;5162110;28;20032;-82
2022/07/31 07:37:56;;;;;;;0.68;0.50;;;;;;;21.29;59.77;101137.72;5177097;28;20033;-82
2022/07/31 07:40:27;;;;;;;0.30;0.30;;;;;;;21.29;60.32;101131.53;5168524;28;20056;-82
2022/07/31 07:42:58;;;;;;;0.43;0.43;;;;;;;21.37;58.85;101127.41;5165593;28;20722;-83
2022/07/31 07:45:29;;;;;;;0.30;0.30;;;;;;;21.39;60.16;101128.16;5174957;28;20045;-83
2022/07/31 07:47:59;;;;;;;0.50;0.50;;;;;;;21.39;60.53;101128.16;5205257;28;20088;-82
2022/07/31 07:50:30;;;;;;;0.22;0.22;;;;;;;21.30;61.82;101120.75;5160567;28;20048;-82
2022/07/31 07:53:03;;;;;;;0.20;0.20;;;;;;;21.29;61.35;101127.03;5153057;28;20040;-83
2022/07/31 07:55:34;;;;;;;0.63;0.63;;;;;;;21.36;60.42;101127.50;5177848;28;20433;-83
2022/07/31 07:58:04;;;;;;;1.20;0.82;;;;;;;21.46;61.11;101120.59;5192530;28;20692;-83
2022/07/31 08:00:35;;;;;;;0.20;0.20;;;;;;;21.55;59.96;101121.78;5180145;28;20063;-83
2022/07/31 08:03:08;;;;;;;0.20;0.20;;;;;;;21.53;60.22;101111.22;5230212;28;20375;-82
2022/07/31 08:05:39;;;;;;;2.80;1.45;;;;;;;21.53;59.78;101119.22;5181266;28;20091;-81
2022/07/31 08:08:10;;;;;;;0.30;0.30;;;;;;;21.58;60.37;101112.75;5186420;28;20025;-81
2022/07/31 08:10:42;;;;;;;1.88;1.38;;;;;;;21.68;59.48;101120.06;5188021;28;20135;-82
2022/07/31 08:13:13;;;;;;;0.35;0.32;;;;;;;21.76;59.99;101110.66;5148655;28;20103;-82
2022/07/31 08:15:44;;;;;;;0.20;0.20;;;;;;;21.64;60.40;101104.34;5168933;28;20048;-81
2022/07/31 08:18:15;;;;;;;0.30;0.30;;;;;;;21.68;60.46;101106.69;5195072;28;20032;-82
2022/07/31 08:20:45;;;;;;;0.22;0.22;;;;;;;21.82;59.11;101104.91;5188074;28;20133;-81
2022/07/31 08:23:16;;;;;;;0.20;0.20;;;;;;;21.79;59.87;101113.09;5187065;28;20684;-82
2022/07/31 08:25:47;;;;;;;0.35;0.35;;;;;;;21.77;59.69;101107.03;5195777;28;20037;-80
2022/07/31 08:28:20;;;;;;;0.32;0.32;;;;;;;21.85;59.07;101115.38;5166188;28;20550;-81
2022/07/31 08:30:51;;;;;;;3.13;0.77;;;;;;;21.89;58.85;101108.84;5168951;28;20040;-80
2022/07/31 08:33:21;;;;;;;0.30;0.30;;;;;;;21.94;58.67;101120.06;5178694;28;20032;-81
2022/07/31 08:35:52;;;;;;;0.30;0.30;;;;;;;21.95;58.94;101116.44;5174492;28;20057;-80
2022/07/31 08:38:23;;;;;;;0.20;0.20;;;;;;;22.00;58.43;101118.78;5175575;28;20087;-81
2022/07/31 08:40:54;;;;;;;0.40;0.40;;;;;;;22.05;58.36;101115.78;5177181;28;20045;-81
2022/07/31 08:43:27;;;;;;;0.50;0.50;;;;;;;22.04;58.63;101114.97;5195146;28;20449;-81
2022/07/31 08:46:01;;;;;;;0.35;0.35;;;;;;;21.95;59.00;101121.78;5166804;28;20478;-82
2022/07/31 08:48:39;;;;;;;0.22;0.22;;;;;;;22.05;58.64;101119.34;5194726;28;20056;-82
2022/07/31 08:51:12;;;;;;;0.20;0.20;;;;;;;22.10;58.81;101119.03;5188348;28;20613;-82
2022/07/31 08:53:53;;;;;;;0.68;0.60;;;;;;;22.08;58.97;101103.06;5181795;28;20037;-82
2022/07/31 08:56:24;;;;;;;0.30;0.30;;;;;;;22.07;58.77;101117.41;5157305;28;20546;-82
2022/07/31 08:58:56;;;;;;;0.20;0.20;;;;;;;22.11;58.72;101115.34;5173884;28;20014;-81
2022/07/31 09:01:33;;;;;;;0.50;0.50;;;;;;;22.14;58.91;101113.34;5171120;28;20038;-81
2022/07/31 09:07:14;;;;;;;0.22;0.22;;;;;;;22.12;59.29;101112.59;5124341;28;20043;-82
2022/07/31 09:09:47;;;;;;;0.30;0.30;;;;;;;22.15;59.08;101116.88;5123185;28;20053;-80
2022/07/31 09:12:32;;;;;;;0.32;0.32;;;;;;;22.19;59.19;101096.97;5160740;28;20041;-82
2022/07/31 09:15:03;;;;;;;0.30;0.30;;;;;;;22.19;59.03;101101.47;5130013;28;20559;-81
2022/07/31 09:17:41;;;;;;;0.25;0.25;;;;;;;22.25;58.85;101101.91;5132670;28;20038;-83
2022/07/31 09:20:25;;;;;;;1.00;1.00;;;;;;;22.25;59.10;101093.88;5154535;28;20051;-83
2022/07/31 09:23:10;;;;;;;0.35;0.35;;;;;;;22.35;59.06;101101.25;5153597;28;20046;-80
2022/07/31 09:25:56;;;;;;;0.30;0.30;;;;;;;22.36;58.55;101094.94;5174426;28;20031;-83
2022/07/31 09:28:38;;;;;;;0.30;0.30;;;;;;;22.42;58.76;101099.88;5139281;28;20039;-83
2022/07/31 09:31:13;;;;;;;0.30;0.30;;;;;;;22.48;58.74;101088.75;5119410;28;20117;-82
2022/07/31 09:33:46;;;;;;;0.20;0.20;;;;;;;22.52;58.43;101097.41;5128340;28;20032;-83
2022/07/31 09:36:27;;;;;;;0.30;0.30;;;;;;;22.63;58.27;101092.16;5128633;28;20090;-81
2022/07/31 09:39:01;;;;;;;1.95;0.52;;;;;;;22.59;58.17;101096.88;5110582;28;20031;-82
2022/07/31 09:41:32;;;;;;;0.35;0.35;;;;;;;22.61;58.18;101102.94;5125875;28;20077;-84
2022/07/31 09:44:09;;;;;;;0.40;0.40;;;;;;;22.78;57.70;101092.84;5156038;28;20062;-84
2022/07/31 09:46:45;;;;;;;0.40;0.40;;;;;;;22.85;57.42;101094.09;5148175;28;20057;-82
2022/07/31 09:49:18;;;;;;;0.30;0.30;;;;;;;22.90;57.06;101089.28;5153875;28;20041;-81
2022/07/31 09:51:49;;;;;;;0.20;0.20;;;;;;;22.86;57.54;101089.59;5145018;28;20055;-83
2022/07/31 09:54:26;;;;;;;0.30;0.30;;;;;;;22.93;57.14;101086.34;5114225;28;20027;-83
2022/07/31 09:56:57;;;;;;;0.40;0.40;;;;;;;22.98;57.42;101078.00;5125525;28;20047;-82
2022/07/31 09:59:30;;;;;;;0.20;0.20;;;;;;;23.03;57.16;101080.31;5116608;28;20033;-85
2022/07/31 10:02:04;;;;;;;0.30;0.30;;;;;;;23.06;56.34;101075.59;5129953;28;20096;-83
2022/07/31 10:04:40;;;;;;;0.45;0.45;;;;;;;23.13;56.08;101076.00;5141878;28;20451;-83
2022/07/31 10:07:13;;;;;;;0.28;0.28;;;;;;;23.18;56.14;101075.69;5126521;28;20054;-81
2022/07/31 10:09:47;;;;;;;0.22;0.22;;;;;;;23.15;56.12;101079.41;5135414;28;20031;-82
2022/07/31 10:12:19;;;;;;;0.20;0.20;;;;;;;23.17;56.30;101080.16;5109991;28;20035;-83
2022/07/31 10:14:52;;;;;;;0.63;0.43;;;;;;;23.32;55.88;101078.16;5113443;28;20058;-82
2022/07/31 10:17:30;;;;;;;0.47;0.47;;;;;;;23.38;55.80;101072.38;5140548;28;20037;-82
2022/07/31 10:20:12;;;;;;;0.20;0.20;;;;;;;23.39;55.76;101084.75;5142269;28;20061;-83
2022/07/31 10:22:46;;;;;;;0.22;0.22;;;;;;;23.51;55.52;101069.59;5156367;28;20120;-83
2022/07/31 10:25:29;;;;;;;0.20;0.20;;;;;;;23.56;55.31;101064.75;5115257;28;20059;-80
2022/07/31 10:28:00;;;;;;;0.20;0.20;;;;;;;23.68;54.96;101065.63;5129394;28;20532;-81
2022/07/31 10:30:31;;;;;;;0.28;0.28;;;;;;;23.74;55.11;101073.19;5133907;28;20046;-82
2022/07/31 10:33:05;;;;;;;1.00;0.50;;;;;;;23.83;54.93;101052.00;5127277;28;20085;-81
2022/07/31 10:35:43;;;;;;;0.30;0.30;;;;;;;23.93;54.63;101062.84;5132607;28;20070;-82
2022/07/31 10:38:22;;;;;;;0.40;0.40;;;;;;;23.97;54.25;101061.69;5128919;28;20102;-82
2022/07/31 10:41:02;;;;;;;1.35;1.23;;;;;;;24.08;54.21;101055.47;5133436;28;20055;-84
2022/07/31 10:43:55;;;;;;;4.50;1.70;;;;;;;24.25;54.29;101054.13;5132004;28;20039;-82
2022/07/31 10:46:27;;;;;;;;;;;;;;;24.22;54.45;101051.69;5141867;28;20097;-81
2022/07/31 10:48:58;;;;;;;0.30;0.30;;;;;;;24.12;53.27;101055.09;5139441;28;19918;-80
2022/07/31 10:51:30;;;;;;;0.10;0.10;;;;;;;24.18;53.36;101059.97;5124962;28;20117;-84
2022/07/31 10:54:09;;;;;;;0.60;0.60;;;;;;;24.15;53.98;101056.69;5104866;28;20057;-82
2022/07/31 10:56:44;;;;;;;0.80;0.80;;;;;;;24.31;53.11;101057.16;5120977;28;20054;-81
2022/07/31 10:59:27;;;;;;;0.20;0.20;;;;;;;24.32;53.34;101048.16;5122021;28;20041;-82
2022/07/31 11:01:57;;;;;;;0.20;0.20;;;;;;;24.38;53.10;101045.97;5143250;28;20046;-83
2022/07/31 11:04:46;;;;;;;0.40;0.40;;;;;;;24.38;53.47;101051.34;5144544;28;20027;-86
2022/07/31 11:07:24;;;;;;;0.38;0.38;;;;;;;24.43;52.91;101044.59;5144218;28;20034;-85
2022/07/31 11:10:20;;;;;;;1.17;0.60;;;;;;;24.32;53.24;101042.78;5119553;28;20531;-86
2022/07/31 11:13:15;;;;;;;0.20;0.20;;;;;;;24.33;53.15;101041.81;5121036;28;20036;-85
2022/07/31 11:15:46;;;;;;;0.20;0.20;;;;;;;24.27;53.05;101041.44;5102158;28;20081;-84
2022/07/31 11:18:21;;;;;;;0.20;0.20;;;;;;;24.20;53.50;101036.59;5093358;28;20045;-84
2022/07/31 11:21:16;;;;;;;0.50;0.50;;;;;;;24.19;53.47;101029.50;5106303;28;20042;-84
2022/07/31 11:23:56;;;;;;;0.30;0.30;;;;;;;24.35;53.07;101030.94;5121282;28;20186;-84
2022/07/31 11:26:30;;;;;;;0.50;0.50;;;;;;;24.39;52.31;101027.06;5129188;28;20047;-84
2022/07/31 11:29:10;;;;;;;0.22;0.22;;;;;;;24.42;52.60;101032.16;5142651;28;20637;-84
2022/07/31 11:31:45;;;;;;;0.65;0.65;;;;;;;24.50;52.54;101035.06;5153613;28;20054;-85
2022/07/31 11:34:47;;;;;;;0.55;0.55;;;;;;;24.57;52.58;101023.84;5150934;28;20351;-83
2022/07/31 11:37:25;;;;;;;0.40;0.40;;;;;;;24.58;52.39;101025.56;5114540;28;20516;-84
2022/07/31 11:40:02;;;;;;;0.82;0.82;;;;;;;24.61;52.42;101025.31;5145100;28;20454;-83
2022/07/31 11:42:43;;;;;;;0.30;0.30;;;;;;;24.67;52.53;101025.69;5116224;28;20045;-83
2022/07/31 11:45:17;;;;;;;0.50;0.50;;;;;;;24.76;52.65;101013.34;5146823;28;20652;-82
2022/07/31 11:47:55;;;;;;;0.20;0.20;;;;;;;24.79;52.03;101012.25;5115147;28;20085;-82
2022/07/31 11:50:29;;;;;;;0.30;0.30;;;;;;;24.72;50.01;101019.94;5153783;28;20074;-83
2022/07/31 11:53:05;;;;;;;0.73;0.65;;;;;;;24.85;50.39;101009.06;5125196;28;20037;-83
2022/07/31 11:55:50;;;;;;;0.43;0.43;;;;;;;24.93;50.30;101013.75;5145069;28;20046;-84
2022/07/31 11:58:23;;;;;;;0.30;0.30;;;;;;;24.93;50.26;101020.00;5150567;28;20030;-82
2022/07/31 12:01:01;;;;;;;0.30;0.30;;;;;;;24.99;50.39;101008.75;5133982;28;20038;-82
2022/07/31 12:03:38;;;;;;;2.60;0.68;;;;;;;25.06;50.16;100998.34;5146456;28;20130;-82